Time;durP1;ratioP1;P1;durP2;ratioP2;P2;SDS_P1;SDS_P2;PMS_P1;PMS_P2;Temp;Humidity;BMP_temperature;BMP_pressure;BME280_temperature;BME280_humidity;BME280_pressure;Samples;Min_cycle;Max_cycle;Signal;HPM_P1;HPM_P2
2023/07/01 00:01:36;;;;;;;4.40;3.67;;;;;;;15.72;92.52;94284.38;5111248;28;20250;-74
2023/07/01 00:04:03;;;;;;;8.27;4.13;;;;;;;15.53;92.68;94286.03;5111091;28;20652;-74
2023/07/01 00:06:30;;;;;;;12.93;4.72;;;;;;;15.71;93.22;94285.56;5118923;27;20900;-74
2023/07/01 00:08:58;;;;;;;5.97;4.45;;;;;;;15.79;92.95;94276.28;5105793;27;20266;-74
2023/07/01 00:11:25;;;;;;;5.72;4.10;;;;;;;15.64;92.75;94278.03;5111052;28;20659;-76
2023/07/01 00:13:52;;;;;;;7.57;3.83;;;;;;;15.72;92.71;94278.91;5111238;28;20206;-74
2023/07/01 00:16:19;;;;;;;6.90;4.93;;;;;;;15.76;92.75;94271.56;5110989;28;20255;-74
2023/07/01 00:18:46;;;;;;;10.23;4.65;;;;;;;15.75;93.55;94267.25;5110889;28;20296;-75
2023/07/01 00:21:13;;;;;;;5.57;3.88;;;;;;;15.79;93.99;94266.16;5111255;28;20194;-74
2023/07/01 00:23:40;;;;;;;7.07;4.32;;;;;;;15.53;93.90;94269.66;5111275;28;20193;-74
2023/07/01 00:26:08;;;;;;;6.13;4.40;;;;;;;15.46;94.45;94264.06;5110809;28;20221;-75
2023/07/01 00:28:35;;;;;;;7.88;4.88;;;;;;;15.44;94.37;94260.94;5113470;27;20648;-75
2023/07/01 00:31:02;;;;;;;5.32;3.83;;;;;;;15.45;93.98;94262.50;5100171;28;20226;-74
2023/07/01 00:33:29;;;;;;;9.73;4.50;;;;;;;15.58;93.03;94263.91;5110935;28;20198;-75
2023/07/01 00:35:55;;;;;;;7.22;3.70;;;;;;;15.66;92.33;94273.00;5111054;28;20201;-75
2023/07/01 00:38:22;;;;;;;14.57;4.65;;;;;;;15.74;91.61;94268.41;5110876;28;20210;-75
2023/07/01 00:40:49;;;;;;;9.07;4.45;;;;;;;15.77;91.05;94254.81;5110107;28;20197;-75
2023/07/01 00:43:17;;;;;;;6.65;4.53;;;;;;;15.63;91.50;94258.13;5110366;28;20232;-75
2023/07/01 00:45:44;;;;;;;6.95;4.05;;;;;;;15.55;90.85;94261.94;5110359;28;20672;-74
2023/07/01 00:48:22;;;;;;;5.28;4.03;;;;;;;15.52;90.82;94259.09;5110791;28;20201;-75
2023/07/01 00:50:49;;;;;;;6.00;4.25;;;;;;;15.46;90.64;94250.44;5110076;28;20210;-74
2023/07/01 00:53:16;;;;;;;5.32;3.88;;;;;;;15.44;90.16;94255.50;5110611;28;20190;-74
2023/07/01 00:55:43;;;;;;;4.68;4.07;;;;;;;15.43;90.29;94259.38;5110245;28;20279;-74
2023/07/01 00:58:10;;;;;;;5.75;4.03;;;;;;;15.39;90.40;94257.72;5110245;28;20198;-75
2023/07/01 01:00:38;;;;;;;5.93;3.72;;;;;;;15.40;89.95;94259.31;5096961;28;20202;-75
2023/07/01 01:03:20;;;;;;;6.20;4.40;;;;;;;15.41;90.07;94261.69;5109944;28;20209;-75
2023/07/01 01:05:54;;;;;;;8.68;4.30;;;;;;;15.49;89.82;94262.56;5109065;28;20198;-75
2023/07/01 01:08:26;;;;;;;6.25;4.13;;;;;;;15.50;90.42;94270.38;5109438;28;20669;-74
2023/07/01 01:10:55;;;;;;;6.68;4.47;;;;;;;15.48;90.41;94261.78;5109232;28;20230;-75
2023/07/01 01:13:25;;;;;;;7.38;4.90;;;;;;;15.52;90.29;94262.63;5108040;27;20206;-75
2023/07/01 01:15:53;;;;;;;6.10;4.50;;;;;;;15.50;90.88;94270.38;5107306;28;20239;-75
2023/07/01 01:18:23;;;;;;;9.13;4.75;;;;;;;15.48;91.44;94261.78;5121872;27;20265;-74
2023/07/01 01:20:51;;;;;;;6.90;4.75;;;;;;;15.43;91.67;94259.38;5111218;27;20208;-75
2023/07/01 01:23:24;;;;;;;10.40;4.47;;;;;;;15.42;91.77;94255.06;5109523;28;20202;-74
2023/07/01 01:25:59;;;;;;;6.15;4.47;;;;;;;15.50;91.21;94251.28;5100054;28;20218;-75
2023/07/01 01:28:28;;;;;;;6.78;4.22;;;;;;;15.49;91.09;94246.97;5109936;28;20193;-75
2023/07/01 01:30:54;;;;;;;7.22;4.20;;;;;;;15.49;91.38;94246.97;5109478;28;20229;-74
2023/07/01 01:33:21;;;;;;;7.47;4.15;;;;;;;15.56;91.25;94244.38;5110031;28;20281;-75
2023/07/01 01:35:48;;;;;;;8.07;4.47;;;;;;;15.59;91.43;94251.03;5109769;28;20205;-75
2023/07/01 01:38:20;;;;;;;4.82;4.03;;;;;;;15.60;91.54;94247.94;5110315;28;20254;-75
2023/07/01 01:40:51;;;;;;;5.90;4.20;;;;;;;15.55;90.98;94250.22;5109938;28;20203;-75
2023/07/01 01:43:23;;;;;;;6.38;4.50;;;;;;;15.52;90.90;94240.78;5109530;28;20229;-75
2023/07/01 01:45:52;;;;;;;6.95;4.13;;;;;;;15.34;92.50;94228.81;5109414;28;20337;-75
2023/07/01 01:48:18;;;;;;;6.72;4.35;;;;;;;15.26;92.41;94233.38;5109456;28;20205;-75
2023/07/01 01:50:50;;;;;;;5.60;4.15;;;;;;;15.19;92.98;94237.91;5109230;28;20278;-75
2023/07/01 01:53:18;;;;;;;5.05;4.03;;;;;;;15.19;93.50;94243.38;5109319;28;20207;-74
2023/07/01 01:55:46;;;;;;;6.18;4.53;;;;;;;15.28;93.38;94250.19;5108818;28;20238;-75
2023/07/01 01:58:13;;;;;;;7.30;4.35;;;;;;;15.31;93.33;94251.38;5115827;27;20620;-75
2023/07/01 02:00:39;;;;;;;6.95;3.97;;;;;;;15.34;93.26;94239.72;5099398;27;20247;-75
2023/07/01 02:03:07;;;;;;;9.23;4.40;;;;;;;15.31;93.38;94237.72;5107026;27;20243;-75
2023/07/01 02:05:34;;;;;;;5.95;4.15;;;;;;;15.29;93.62;94232.66;5102376;28;20633;-75
2023/07/01 02:08:02;;;;;;;5.97;4.40;;;;;;;15.33;93.42;94240.88;5108750;28;20574;-74
2023/07/01 02:10:29;;;;;;;12.02;4.75;;;;;;;15.34;93.22;94242.44;5108181;28;20225;-74
2023/07/01 02:12:55;;;;;;;6.88;3.97;;;;;;;15.34;92.54;94238.94;5108588;28;20211;-74
2023/07/01 02:15:22;;;;;;;8.93;4.65;;;;;;;15.36;93.09;94236.63;5108840;28;20197;-74
2023/07/01 02:17:49;;;;;;;7.15;4.82;;;;;;;15.26;93.18;94238.03;5109026;28;21006;-74
2023/07/01 02:20:17;;;;;;;6.72;4.40;;;;;;;15.29;93.02;94242.78;5095760;28;20198;-74
2023/07/01 02:22:44;;;;;;;5.57;4.05;;;;;;;15.30;92.71;94244.34;5109164;28;20201;-74
2023/07/01 02:25:11;;;;;;;9.63;4.65;;;;;;;15.25;92.84;94231.81;5108657;28;20675;-74
2023/07/01 02:27:38;;;;;;;6.57;4.72;;;;;;;15.27;92.95;94228.72;5109365;28;20603;-74
2023/07/01 02:30:06;;;;;;;7.60;4.43;;;;;;;15.24;92.93;94229.44;5108729;28;20229;-74
2023/07/01 02:32:33;;;;;;;8.18;4.07;;;;;;;15.20;93.35;94237.56;5120677;27;20236;-74
2023/07/01 02:34:59;;;;;;;7.28;4.78;;;;;;;15.21;93.65;94241.06;5108119;28;20223;-75
2023/07/01 02:37:27;;;;;;;8.10;4.68;;;;;;;15.19;93.94;94233.25;5113447;28;20266;-75
2023/07/01 02:39:54;;;;;;;7.88;4.63;;;;;;;15.19;93.97;94240.66;5112989;28;20296;-74
2023/07/01 02:42:21;;;;;;;6.45;4.43;;;;;;;15.17;93.83;94245.72;5113038;28;20282;-74
2023/07/01 02:44:49;;;;;;;6.13;4.25;;;;;;;15.19;93.83;94248.84;5112580;28;20525;-75
2023/07/01 02:47:16;;;;;;;6.70;4.22;;;;;;;15.23;93.50;94255.94;5113085;28;20198;-74
2023/07/01 02:49:43;;;;;;;9.30;5.00;;;;;;;15.37;92.51;94255.38;5113124;28;20594;-74
2023/07/01 02:52:11;;;;;;;5.57;4.38;;;;;;;15.27;92.90;94256.00;5122950;27;20232;-74
2023/07/01 02:54:40;;;;;;;9.13;4.60;;;;;;;15.19;93.61;94249.63;5118874;27;20281;-74
2023/07/01 02:57:08;;;;;;;5.88;4.13;;;;;;;15.24;93.79;94252.06;5102767;28;20265;-74
2023/07/01 02:59:35;;;;;;;5.22;4.32;;;;;;;15.32;93.54;94257.59;5108382;28;20256;-75
2023/07/01 03:02:02;;;;;;;5.47;4.30;;;;;;;15.37;93.37;94258.09;5104462;28;20609;-75
2023/07/01 03:04:28;;;;;;;6.45;5.05;;;;;;;15.60;92.99;94264.31;5112615;28;20201;-74
2023/07/01 03:06:55;;;;;;;6.60;4.43;;;;;;;16.04;92.26;94269.22;5112557;28;20214;-74
2023/07/01 03:09:22;;;;;;;5.45;4.55;;;;;;;16.73;89.19;94263.41;5112426;28;20201;-74
2023/07/01 03:11:51;;;;;;;6.93;5.03;;;;;;;17.44;85.58;94253.88;5112262;28;20312;-74
2023/07/01 03:14:18;;;;;;;5.88;4.65;;;;;;;18.17;82.62;94257.50;5112496;28;20544;-75
2023/07/01 03:16:46;;;;;;;8.00;5.18;;;;;;;18.46;80.55;94253.66;5112446;28;20210;-75
2023/07/01 03:19:13;;;;;;;6.30;4.57;;;;;;;18.93;78.35;94246.38;5112755;28;20206;-75
2023/07/01 03:21:40;;;;;;;10.10;6.50;;;;;;;19.48;75.69;94246.03;5107417;27;20202;-75
2023/07/01 03:24:07;;;;;;;11.55;5.45;;;;;;;19.95;74.15;94247.56;5111038;28;20202;-75
2023/07/01 03:26:34;;;;;;;11.38;4.97;;;;;;;20.16;73.02;94241.22;5111829;28;20222;-74
2023/07/01 03:29:02;;;;;;;8.05;5.28;;;;;;;20.40;71.50;94234.84;5112156;28;20247;-75
2023/07/01 03:31:29;;;;;;;7.00;5.80;;;;;;;20.69;70.49;94242.97;5112121;28;20657;-75
2023/07/01 03:33:55;;;;;;;6.45;5.13;;;;;;;21.15;69.49;94235.22;5111942;28;20574;-75
2023/07/01 03:36:22;;;;;;;8.70;5.05;;;;;;;21.56;68.02;94234.53;5111470;28;20717;-75
2023/07/01 03:38:49;;;;;;;9.00;4.57;;;;;;;22.04;66.04;94228.97;5111114;28;20258;-74
2023/07/01 03:41:16;;;;;;;6.32;4.80;;;;;;;22.68;63.90;94237.31;5111318;28;20297;-75
2023/07/01 03:43:42;;;;;;;7.00;4.80;;;;;;;23.44;61.11;94228.72;5109904;28;20637;-75
2023/07/01 03:46:11;;;;;;;8.50;4.80;;;;;;;23.29;60.65;94231.72;5111314;28;20197;-75
2023/07/01 03:48:37;;;;;;;5.82;4.47;;;;;;;22.74;62.61;94231.31;5112084;28;20202;-75
2023/07/01 03:51:04;;;;;;;5.70;5.15;;;;;;;22.89;62.76;94235.47;5111603;28;20228;-75
2023/07/01 03:53:31;;;;;;;8.70;5.82;;;;;;;23.74;60.66;94225.88;5111960;28;20221;-75
2023/07/01 03:55:57;;;;;;;5.60;4.35;;;;;;;23.91;59.99;94235.88;5109882;28;20656;-75
2023/07/01 03:58:24;;;;;;;5.80;5.22;;;;;;;24.76;57.62;94244.50;5106433;28;20197;-75
2023/07/01 04:00:52;;;;;;;7.60;6.00;;;;;;;25.90;54.54;94231.63;5098375;28;20212;-75
2023/07/01 04:03:23;;;;;;;8.70;5.10;;;;;;;25.84;53.99;94233.34;5111519;28;20208;-75
2023/07/01 04:05:50;;;;;;;7.32;5.03;;;;;;;26.44;52.82;94225.44;5111561;28;20303;-75
2023/07/01 04:08:17;;;;;;;8.55;5.07;;;;;;;26.45;51.93;94222.22;5120765;27;20254;-75
2023/07/01 04:10:44;;;;;;;6.65;5.45;;;;;;;27.27;50.14;94225.41;5108037;27;20290;-75
2023/07/01 04:13:11;;;;;;;5.88;5.28;;;;;;;27.53;48.27;94224.19;5110659;28;20250;-75
2023/07/01 04:15:37;;;;;;;9.20;5.72;;;;;;;27.96;47.43;94225.59;5110953;28;20811;-75
2023/07/01 04:18:04;;;;;;;6.75;5.68;;;;;;;27.63;48.26;94232.66;5111533;28;20394;-76
2023/07/01 04:20:32;;;;;;;9.63;5.75;;;;;;;28.23;46.13;94223.06;5108838;27;20214;-75
2023/07/01 04:22:59;;;;;;;6.75;6.15;;;;;;;28.50;46.18;94230.09;5101389;28;20605;-76
2023/07/01 04:25:26;;;;;;;9.00;6.10;;;;;;;28.41;45.96;94232.84;5103684;27;20495;-76
2023/07/01 04:27:54;;;;;;;6.22;5.53;;;;;;;28.68;45.78;94224.69;5106900;28;20201;-75
2023/07/01 04:30:21;;;;;;;7.75;6.03;;;;;;;29.16;44.40;94219.69;5110250;28;20201;-76
2023/07/01 04:32:48;;;;;;;6.95;5.70;;;;;;;29.81;43.39;94227.09;5102278;28;20214;-76
2023/07/01 04:35:15;;;;;;;6.50;5.85;;;;;;;30.32;41.83;94225.38;5110876;28;20202;-76
2023/07/01 04:37:43;;;;;;;7.15;5.72;;;;;;;30.76;41.33;94219.47;5110899;28;20296;-76
2023/07/01 04:40:11;;;;;;;8.07;5.63;;;;;;;30.54;41.62;94219.66;5110768;28;20194;-76
2023/07/01 04:42:45;;;;;;;7.53;6.30;;;;;;;30.45;41.06;94221.66;5109992;28;20221;-75
2023/07/01 04:45:13;;;;;;;8.55;6.50;;;;;;;29.22;42.82;94229.81;5110943;28;20463;-76
2023/07/01 04:47:39;;;;;;;7.82;5.57;;;;;;;30.57;40.97;94212.34;5106048;28;20219;-76
2023/07/01 04:50:08;;;;;;;6.97;6.25;;;;;;;31.19;39.54;94211.94;5110349;28;20667;-76
2023/07/01 04:52:35;;;;;;;7.78;6.15;;;;;;;31.77;38.31;94214.38;5110664;28;20229;-76
2023/07/01 04:55:04;;;;;;;8.55;6.55;;;;;;;32.18;37.88;94217.56;5096763;28;20289;-76
2023/07/01 04:57:31;;;;;;;12.52;6.22;;;;;;;32.37;37.40;94230.22;5110389;28;20194;-76
2023/07/01 04:59:57;;;;;;;7.18;6.47;;;;;;;32.52;37.04;94224.66;5104473;28;20244;-75
2023/07/01 05:02:24;;;;;;;7.70;6.90;;;;;;;32.67;35.96;94231.06;5105396;28;20656;-76
2023/07/01 05:04:51;;;;;;;10.23;6.97;;;;;;;31.22;38.69;94233.41;5107193;28;20201;-76
2023/07/01 05:07:17;;;;;;;8.45;6.38;;;;;;;31.33;38.86;94233.66;5110454;28;20217;-76
2023/07/01 05:09:44;;;;;;;8.32;7.03;;;;;;;31.36;38.67;94235.53;5110675;28;20262;-76
2023/07/01 05:12:13;;;;;;;9.05;6.75;;;;;;;31.79;38.19;94237.09;5109663;28;20229;-76
2023/07/01 05:14:40;;;;;;;7.53;6.57;;;;;;;33.77;34.84;94225.91;5110010;28;20703;-76
2023/07/01 05:17:06;;;;;;;8.98;6.40;;;;;;;32.08;36.88;94236.47;5109754;28;20235;-76
2023/07/01 05:19:33;;;;;;;8.55;5.97;;;;;;;33.16;36.13;94245.31;5110748;28;20247;-75
2023/07/01 05:22:00;;;;;;;8.25;5.95;;;;;;;32.77;36.53;94241.00;5109618;28;20608;-76
2023/07/01 05:24:26;;;;;;;9.07;6.47;;;;;;;33.19;35.92;94238.72;5110293;28;20193;-76
2023/07/01 05:26:53;;;;;;;6.43;5.57;;;;;;;32.83;35.09;94245.44;5109688;28;20206;-76
2023/07/01 05:29:21;;;;;;;5.70;5.10;;;;;;;32.97;34.14;94243.91;5110219;28;20606;-76
2023/07/01 05:31:49;;;;;;;7.30;6.03;;;;;;;32.66;35.28;94237.97;5109111;28;20225;-77
2023/07/01 05:34:16;;;;;;;6.32;5.72;;;;;;;33.21;34.93;94238.25;5109939;28;20197;-76
2023/07/01 05:36:43;;;;;;;6.93;5.47;;;;;;;33.57;34.59;94225.84;5110339;27;20201;-76
2023/07/01 05:39:10;;;;;;;8.18;6.07;;;;;;;34.43;33.29;94236.59;5099098;28;20640;-76
2023/07/01 05:41:36;;;;;;;7.45;6.13;;;;;;;32.34;35.78;94245.22;5102123;28;20202;-76
2023/07/01 05:44:03;;;;;;;6.72;5.82;;;;;;;33.16;35.25;94245.31;5099136;28;20518;-74
2023/07/01 05:46:31;;;;;;;11.30;6.70;;;;;;;33.16;35.05;94239.69;5099590;28;20194;-73
2023/07/01 05:48:58;;;;;;;10.50;5.90;;;;;;;33.60;33.77;94249.38;5108746;28;20262;-73
2023/07/01 05:51:25;;;;;;;8.43;6.20;;;;;;;34.14;33.34;94245.13;5119203;27;20342;-73
2023/07/01 05:53:52;;;;;;;7.95;6.10;;;;;;;35.00;32.50;94232.38;5091594;28;20198;-74
2023/07/01 05:56:19;;;;;;;10.48;6.40;;;;;;;34.96;32.29;94241.06;5097259;28;20255;-75
2023/07/01 05:58:45;;;;;;;7.50;6.78;;;;;;;34.59;32.12;94246.47;5099832;28;20259;-74
2023/07/01 06:01:12;;;;;;;9.52;6.00;;;;;;;35.34;31.87;94233.50;5098295;28;20222;-75
2023/07/01 06:03:40;;;;;;;8.38;6.13;;;;;;;35.05;32.23;94240.88;5099861;28;20243;-76
2023/07/01 06:06:07;;;;;;;7.72;5.82;;;;;;;34.92;32.09;94252.53;5099955;28;20193;-75
2023/07/01 06:08:34;;;;;;;6.85;6.13;;;;;;;34.70;32.67;94249.44;5099227;28;20209;-74
2023/07/01 06:11:01;;;;;;;7.82;6.78;;;;;;;33.67;33.70;94254.59;5099183;28;20193;-75
2023/07/01 06:13:27;;;;;;;9.90;6.80;;;;;;;32.93;34.93;94248.19;5108465;28;20262;-75
2023/07/01 06:15:54;;;;;;;9.60;6.75;;;;;;;33.91;34.12;94251.66;5108986;28;20287;-75
2023/07/01 06:18:21;;;;;;;8.63;6.47;;;;;;;32.90;35.55;94249.16;5109103;28;20197;-74
2023/07/01 06:20:49;;;;;;;9.52;6.65;;;;;;;31.97;36.62;94253.81;5107068;28;20239;-75
2023/07/01 06:23:17;;;;;;;9.13;6.63;;;;;;;31.55;37.90;94251.03;5106004;28;20506;-74
2023/07/01 06:25:43;;;;;;;9.10;6.10;;;;;;;33.18;35.75;94254.03;5107856;28;20271;-75
2023/07/01 06:28:10;;;;;;;6.93;6.30;;;;;;;33.43;34.21;94240.66;5107667;28;20198;-74
2023/07/01 06:30:37;;;;;;;6.95;6.35;;;;;;;34.28;33.48;94247.13;5107204;28;20652;-75
2023/07/01 06:33:06;;;;;;;7.00;6.30;;;;;;;34.53;33.18;94249.25;5105323;28;20641;-76
2023/07/01 06:35:33;;;;;;;9.18;6.25;;;;;;;34.12;33.73;94244.81;5106479;28;20200;-79
2023/07/01 06:38:02;;;;;;;7.13;6.43;;;;;;;33.38;34.01;94246.97;5107989;28;20196;-73
2023/07/01 06:40:28;;;;;;;7.63;6.20;;;;;;;33.59;33.69;94254.22;5108096;28;20198;-74
2023/07/01 06:42:55;;;;;;;6.50;5.90;;;;;;;34.67;33.03;94249.66;5104900;28;20225;-76
2023/07/01 06:45:22;;;;;;;8.77;5.78;;;;;;;34.95;32.51;94247.19;5105931;28;20209;-76
2023/07/01 06:47:49;;;;;;;7.30;5.93;;;;;;;35.36;31.82;94242.25;5107671;28;20251;-77
2023/07/01 06:50:15;;;;;;;7.47;5.90;;;;;;;35.01;31.45;94239.56;5106354;28;20262;-75
2023/07/01 06:52:42;;;;;;;7.38;5.75;;;;;;;34.03;32.28;94250.59;5105571;28;20263;-73
2023/07/01 06:55:13;;;;;;;8.50;5.82;;;;;;;31.93;35.65;94252.44;5107949;28;20621;-72
2023/07/01 06:57:44;;;;;;;6.75;5.38;;;;;;;32.74;34.77;94242.75;5106155;28;20837;-76
2023/07/01 07:00:15;;;;;;;8.77;5.97;;;;;;;32.58;34.43;94239.56;5108786;28;20190;-77
2023/07/01 07:02:42;;;;;;;6.70;6.00;;;;;;;32.77;34.52;94238.97;5107240;28;20224;-76
2023/07/01 07:05:09;;;;;;;6.40;5.35;;;;;;;34.22;33.12;94232.16;5108949;28;20206;-76
2023/07/01 07:07:36;;;;;;;9.25;5.80;;;;;;;35.70;30.74;94215.88;5103996;28;20599;-74
2023/07/01 07:10:04;;;;;;;6.90;5.80;;;;;;;35.87;30.74;94211.16;5108415;28;20205;-74
2023/07/01 07:12:32;;;;;;;7.53;5.75;;;;;;;35.71;30.29;94220.22;5107461;28;20249;-76
2023/07/01 07:14:59;;;;;;;7.88;5.40;;;;;;;36.23;30.24;94211.63;5106672;28;20317;-76
2023/07/01 07:17:26;;;;;;;6.50;4.90;;;;;;;35.23;31.95;94215.22;5107909;28;20197;-75
2023/07/01 07:19:52;;;;;;;8.45;5.35;;;;;;;34.62;32.53;94219.38;5111082;28;20243;-74
2023/07/01 07:22:19;;;;;;;5.82;5.05;;;;;;;33.97;33.95;94213.94;5109214;28;20654;-74
2023/07/01 07:24:46;;;;;;;7.72;5.72;;;;;;;32.82;34.35;94212.25;5111947;28;20213;-74
2023/07/01 07:27:13;;;;;;;9.65;5.65;;;;;;;31.84;36.43;94216.06;5111541;28;20194;-79
2023/07/01 07:29:41;;;;;;;6.18;5.50;;;;;;;32.56;35.84;94214.78;5111913;28;20201;-78
2023/07/01 07:32:09;;;;;;;6.35;5.75;;;;;;;32.49;34.86;94213.16;5107491;28;20258;-78
2023/07/01 07:34:37;;;;;;;7.95;5.65;;;;;;;34.14;33.98;94208.56;5113554;27;20190;-77
2023/07/01 07:37:05;;;;;;;5.90;5.28;;;;;;;34.06;34.03;94207.41;5110405;28;20323;-77
2023/07/01 07:39:32;;;;;;;6.93;5.35;;;;;;;33.94;34.50;94205.72;5111316;28;20309;-76
2023/07/01 07:41:59;;;;;;;5.88;5.07;;;;;;;33.30;34.35;94206.50;5110093;28;20194;-77
2023/07/01 07:44:25;;;;;;;6.53;5.53;;;;;;;32.26;35.48;94213.94;5108025;28;20248;-77
2023/07/01 07:46:56;;;;;;;6.03;5.30;;;;;;;31.73;36.06;94206.13;5105674;28;20609;-77
2023/07/01 07:49:22;;;;;;;6.65;5.63;;;;;;;31.40;38.31;94202.56;5108352;28;20204;-77
2023/07/01 07:51:49;;;;;;;8.77;5.80;;;;;;;32.54;35.01;94194.09;5110443;28;20233;-78
2023/07/01 07:54:16;;;;;;;6.47;5.75;;;;;;;32.70;36.50;94191.59;5110853;28;20198;-78
2023/07/01 07:56:43;;;;;;;8.00;5.47;;;;;;;31.69;36.89;94187.97;5109180;28;20193;-76
2023/07/01 07:59:10;;;;;;;6.10;5.22;;;;;;;32.63;36.14;94191.22;5109781;28;20246;-77
2023/07/01 08:01:36;;;;;;;7.28;6.00;;;;;;;31.08;37.49;94195.63;5109982;28;20661;-76
2023/07/01 08:04:05;;;;;;;13.20;5.97;;;;;;;29.61;40.41;94200.38;5109642;28;20193;-76
2023/07/01 08:06:31;;;;;;;8.20;6.03;;;;;;;30.49;39.32;94194.28;5110357;28;20197;-79
2023/07/01 08:08:58;;;;;;;6.45;5.75;;;;;;;30.61;38.46;94196.19;5109588;28;20198;-76
2023/07/01 08:11:25;;;;;;;6.03;5.32;;;;;;;30.62;37.20;94186.53;5109567;28;20198;-79
2023/07/01 08:13:52;;;;;;;5.82;5.32;;;;;;;30.46;36.91;94189.66;5110717;28;20303;-78
2023/07/01 08:16:18;;;;;;;9.38;5.43;;;;;;;30.12;38.99;94188.69;5109128;28;20262;-79
2023/07/01 08:18:45;;;;;;;6.97;5.65;;;;;;;30.58;38.21;94181.13;5109211;28;20800;-76
2023/07/01 08:21:19;;;;;;;8.18;6.07;;;;;;;31.63;37.26;94176.59;5108465;28;20274;-84
2023/07/01 08:23:46;;;;;;;6.40;5.78;;;;;;;32.03;37.80;94167.81;5110061;28;20269;-77
2023/07/01 08:26:13;;;;;;;9.48;5.47;;;;;;;32.65;35.48;94169.06;5109270;28;20254;-80
2023/07/01 08:28:40;;;;;;;6.18;5.57;;;;;;;33.27;35.38;94171.72;5094726;28;20267;-79
2023/07/01 08:31:06;;;;;;;6.85;5.45;;;;;;;32.64;35.72;94164.72;5108763;28;20610;-77
2023/07/01 08:33:34;;;;;;;8.23;6.13;;;;;;;31.36;38.78;94169.13;5109936;27;20702;-77
2023/07/01 08:36:01;;;;;;;8.23;6.60;;;;;;;30.31;39.46;94173.50;5101368;28;20225;-75
2023/07/01 08:38:30;;;;;;;9.25;6.35;;;;;;;29.83;39.85;94177.16;5113195;27;20208;-77
2023/07/01 08:41:03;;;;;;;6.43;5.82;;;;;;;30.64;38.42;94172.88;5110728;28;20308;-78
2023/07/01 08:43:31;;;;;;;7.50;6.03;;;;;;;30.75;38.81;94168.34;5110454;28;20238;-79
2023/07/01 08:46:03;;;;;;;8.30;5.68;;;;;;;30.18;39.11;94169.31;5110716;28;20247;-81
2023/07/01 08:48:32;;;;;;;6.53;5.50;;;;;;;28.61;41.78;94180.31;5110928;28;20206;-88
2023/07/01 08:51:11;;;;;;;8.65;6.30;;;;;;;28.94;41.53;94170.31;5111165;28;20296;-81
2023/07/01 08:53:42;;;;;;;5.70;5.10;;;;;;;29.08;40.09;94162.63;5110673;28;20694;-77
2023/07/01 08:56:10;;;;;;;7.10;5.95;;;;;;;28.80;41.70;94159.72;5110097;28;20201;-80
2023/07/01 08:58:37;;;;;;;6.05;5.10;;;;;;;28.42;41.26;94161.94;5120555;27;20254;-76
2023/07/01 09:01:05;;;;;;;8.65;5.50;;;;;;;28.02;43.02;94170.09;5097625;27;20204;-77
2023/07/01 09:03:35;;;;;;;6.35;5.47;;;;;;;28.38;42.21;94167.63;5107185;28;20276;-75
2023/07/01 09:06:02;;;;;;;6.25;4.82;;;;;;;28.49;41.64;94161.66;5095665;28;20202;-76
2023/07/01 09:08:29;;;;;;;6.78;5.18;;;;;;;28.72;40.72;94152.81;5099931;28;20198;-77
2023/07/01 09:10:57;;;;;;;10.82;4.72;;;;;;;29.54;40.84;94147.63;5096486;28;20198;-80
2023/07/01 09:13:24;;;;;;;5.63;5.03;;;;;;;29.06;40.93;94142.78;5101369;28;20234;-81
2023/07/01 09:15:51;;;;;;;5.85;5.10;;;;;;;29.52;41.23;94150.09;5102964;28;20259;-79
2023/07/01 09:18:23;;;;;;;6.82;5.20;;;;;;;28.75;41.35;94146.31;5110556;28;20202;-79
2023/07/01 09:20:51;;;;;;;6.53;5.18;;;;;;;28.76;41.00;94145.09;5110980;28;20278;-79
2023/07/01 09:23:29;;;;;;;5.43;4.82;;;;;;;27.78;41.74;94136.31;5105668;28;20268;-75
2023/07/01 09:26:14;;;;;;;6.55;4.65;;;;;;;27.88;44.02;94133.13;5108781;28;20780;-76
2023/07/01 09:28:42;;;;;;;8.10;5.15;;;;;;;27.97;43.99;94129.69;5114977;27;20193;-78
2023/07/01 09:31:10;;;;;;;7.05;5.05;;;;;;;28.63;41.95;94133.25;5109418;28;20205;-79
2023/07/01 09:33:37;;;;;;;7.93;5.13;;;;;;;28.66;42.46;94132.34;5109087;28;20229;-79
2023/07/01 09:36:05;;;;;;;7.55;5.15;;;;;;;28.54;43.10;94127.63;5109361;28;20695;-78
2023/07/01 09:38:34;;;;;;;6.70;4.72;;;;;;;28.34;43.91;94121.59;5109351;28;20650;-77
2023/07/01 09:41:15;;;;;;;7.38;5.10;;;;;;;29.14;41.99;94116.16;5102105;28;20205;-79
2023/07/01 09:43:42;;;;;;;5.15;4.63;;;;;;;28.99;42.18;94110.38;5106011;28;20229;-79
2023/07/01 09:46:09;;;;;;;5.35;4.85;;;;;;;28.46;43.34;94112.41;5108441;28;20212;-78
2023/07/01 09:48:36;;;;;;;6.80;5.15;;;;;;;28.12;44.05;94111.22;5109401;28;20247;-77
2023/07/01 09:51:04;;;;;;;10.48;5.05;;;;;;;28.09;43.04;94114.91;5101463;28;20210;-78
2023/07/01 09:53:33;;;;;;;6.90;5.13;;;;;;;28.87;41.96;94103.66;5096294;28;20707;-78
2023/07/01 09:56:01;;;;;;;6.53;4.78;;;;;;;29.53;41.26;94092.25;5103693;28;20210;-79
2023/07/01 09:58:30;;;;;;;6.55;5.00;;;;;;;29.84;41.56;94094.91;5105514;28;20629;-77
2023/07/01 10:00:57;;;;;;;7.15;4.82;;;;;;;30.58;39.97;94082.47;5100081;28;20290;-79
2023/07/01 10:03:26;;;;;;;7.85;5.20;;;;;;;30.74;39.21;94080.09;5094654;28;20279;-76
2023/07/01 10:05:54;;;;;;;6.30;4.82;;;;;;;30.33;40.86;94078.78;5089152;28;20203;-79
2023/07/01 10:08:21;;;;;;;6.18;4.93;;;;;;;30.02;41.91;94072.59;5089435;28;20706;-76
2023/07/01 10:11:00;;;;;;;5.55;5.05;;;;;;;29.86;42.96;94075.69;5105818;28;20212;-78
2023/07/01 10:13:31;;;;;;;8.88;5.30;;;;;;;30.07;41.43;94069.16;5108425;28;20630;-78
2023/07/01 10:16:01;;;;;;;5.55;4.63;;;;;;;29.56;40.70;94075.34;5104941;28;20254;-77
2023/07/01 10:18:30;;;;;;;6.82;4.90;;;;;;;29.92;40.95;94062.66;5122441;28;20284;-78
2023/07/01 10:21:27;;;;;;;6.78;4.90;;;;;;;29.80;40.10;94066.34;5104774;28;20231;-76
2023/07/01 10:23:55;;;;;;;6.18;4.78;;;;;;;29.69;40.89;94059.22;5103127;28;20287;-82
2023/07/01 10:26:39;;;;;;;7.53;5.38;;;;;;;29.52;41.66;94057.22;5102922;28;20194;-80
2023/07/01 10:29:54;;;;;;;5.90;5.30;;;;;;;29.64;40.48;94048.69;5098155;28;20283;-79
2023/07/01 10:32:32;;;;;;;5.38;4.60;;;;;;;29.70;40.94;94046.03;5099111;28;20276;-75
2023/07/01 10:35:08;;;;;;;7.07;5.10;;;;;;;29.40;42.33;94046.94;5108765;28;20201;-81
2023/07/01 10:37:35;;;;;;;6.78;5.30;;;;;;;29.53;40.71;94053.16;5108345;28;20606;-79
2023/07/01 10:40:07;;;;;;;6.78;5.25;;;;;;;28.95;43.00;94051.94;5095162;28;20201;-77
2023/07/01 10:42:36;;;;;;;6.57;4.90;;;;;;;29.22;42.84;94036.50;5106683;28;20237;-80
2023/07/01 10:45:40;;;;;;;6.18;4.85;;;;;;;29.16;42.57;94052.31;5099463;28;20217;-80
2023/07/01 10:48:17;;;;;;;5.72;5.13;;;;;;;29.17;43.09;94037.13;5112734;28;20247;-79
2023/07/01 10:51:02;;;;;;;5.70;4.85;;;;;;;29.45;41.44;94030.38;5087670;28;20206;-79
2023/07/01 10:53:30;;;;;;;5.72;4.60;;;;;;;30.33;41.03;94030.50;5102486;28;20700;-80
2023/07/01 10:56:11;;;;;;;6.60;4.90;;;;;;;30.63;41.71;94037.09;5092016;28;20212;-76
2023/07/01 10:58:38;;;;;;;5.70;5.10;;;;;;;30.02;42.15;94044.66;5101475;28;20197;-80
2023/07/01 11:01:06;;;;;;;7.72;4.75;;;;;;;29.76;40.34;94044.19;5095594;28;20726;-76
2023/07/01 11:03:53;;;;;;;7.43;5.05;;;;;;;29.73;42.22;94030.38;5092413;28;20547;-75
2023/07/01 11:06:19;;;;;;;7.45;4.93;;;;;;;29.49;40.53;94025.41;5092402;28;20266;-76
2023/07/01 11:08:48;;;;;;;5.75;5.00;;;;;;;28.84;42.02;94031.28;5104279;28;20202;-76
2023/07/01 11:11:21;;;;;;;7.57;5.03;;;;;;;29.27;41.26;94028.28;5097728;28;20212;-76
2023/07/01 11:14:02;;;;;;;7.70;5.20;;;;;;;29.04;44.10;94022.53;5112017;28;20232;-75
2023/07/01 11:16:32;;;;;;;7.80;5.55;;;;;;;29.45;41.77;94024.78;5112542;28;20201;-75
2023/07/01 11:19:02;;;;;;;5.80;5.20;;;;;;;29.48;40.39;94017.50;5112189;28;20206;-78
2023/07/01 11:21:30;;;;;;;6.18;5.57;;;;;;;30.14;41.03;94007.38;5123593;27;20201;-78
2023/07/01 11:23:59;;;;;;;8.55;4.93;;;;;;;30.06;39.43;94011.00;5096181;27;20222;-77
2023/07/01 11:26:27;;;;;;;6.55;5.22;;;;;;;30.38;39.67;94005.44;5114699;27;20205;-76
2023/07/01 11:28:54;;;;;;;5.82;5.10;;;;;;;30.58;39.45;94006.97;5100181;27;20224;-76
2023/07/01 11:31:24;;;;;;;5.38;4.85;;;;;;;31.08;38.67;94000.50;5113170;28;20202;-79
2023/07/01 11:33:53;;;;;;;7.78;5.10;;;;;;;31.31;39.34;94001.78;5116629;27;20282;-78
2023/07/01 11:36:22;;;;;;;5.70;5.10;;;;;;;31.54;37.59;93997.44;5111193;28;20198;-77
2023/07/01 11:38:50;;;;;;;11.80;5.45;;;;;;;31.19;38.83;93999.22;5112370;28;20288;-79
2023/07/01 11:41:19;;;;;;;6.07;5.40;;;;;;;31.03;38.41;93998.34;5125996;27;20668;-78